Time;durP1;ratioP1;P1;durP2;ratioP2;P2;SDS_P1;SDS_P2;PMS_P1;PMS_P2;Temp;Humidity;BMP_temperature;BMP_pressure;BME280_temperature;BME280_humidity;BME280_pressure;Samples;Min_cycle;Max_cycle;Signal;HPM_P1;HPM_P2
2022/05/11 00:02:07;;;;;;;5.30;4.80;;;;;;;;;;5055188;28;20228;-84
2022/05/11 00:04:34;;;;;;;5.30;4.80;;;;;;;;;;5053737;28;20710;-84
2022/05/11 00:07:01;;;;;;;6.23;5.10;;;;;;;;;;5054822;28;20213;-84
2022/05/11 00:09:29;;;;;;;5.30;4.80;;;;;;;;;;5054780;28;20241;-84
2022/05/11 00:11:56;;;;;;;7.80;4.90;;;;;;;;;;5055371;28;20206;-84
2022/05/11 00:14:23;;;;;;;5.40;5.00;;;;;;;;;;5054110;28;20245;-83
2022/05/11 00:16:51;;;;;;;7.93;4.90;;;;;;;;;;5054916;28;20240;-83
2022/05/11 00:19:21;;;;;;;5.23;4.83;;;;;;;;;;5054719;28;20328;-84
2022/05/11 00:21:48;;;;;;;6.73;4.63;;;;;;;;;;5055293;28;20300;-84
2022/05/11 00:24:15;;;;;;;6.70;5.20;;;;;;;;;;5054188;28;20242;-84
2022/05/11 00:26:43;;;;;;;7.57;4.93;;;;;;;;;;5054617;28;20233;-84
2022/05/11 00:29:10;;;;;;;6.43;5.77;;;;;;;;;;5054285;28;20234;-84
2022/05/11 00:31:37;;;;;;;5.17;4.77;;;;;;;;;;5054612;28;20198;-84
2022/05/11 00:34:04;;;;;;;5.20;4.80;;;;;;;;;;5063010;28;20237;-83
2022/05/11 00:36:31;;;;;;;5.17;4.77;;;;;;;;;;5058676;28;20205;-83
2022/05/11 00:38:59;;;;;;;6.10;4.93;;;;;;;;;;5056653;28;20258;-83
2022/05/11 00:41:26;;;;;;;7.27;5.03;;;;;;;;;;5055236;28;20617;-84
2022/05/11 00:43:55;;;;;;;8.13;5.00;;;;;;;;;;5054189;28;20642;-84
2022/05/11 00:46:26;;;;;;;6.30;5.10;;;;;;;;;;5054565;28;20724;-83
2022/05/11 00:51:41;;;;;;;5.60;4.60;;;;;;;;;;5054714;28;20260;-82
2022/05/11 00:54:09;;;;;;;4.97;4.53;;;;;;;;;;5055946;28;20248;-83
2022/05/11 00:56:37;;;;;;;5.83;5.33;;;;;;;;;;5054424;28;20206;-84
2022/05/11 00:59:10;;;;;;;4.97;4.57;;;;;;;;;;5053802;28;20598;-84
2022/05/11 01:01:38;;;;;;;5.40;4.90;;;;;;;;;;5054276;28;20768;-83
2022/05/11 01:04:09;;;;;;;5.63;5.13;;;;;;;;;;5066384;28;20237;-84
2022/05/11 01:06:37;;;;;;;6.00;5.40;;;;;;;;;;5061990;28;20209;-84
2022/05/11 01:09:05;;;;;;;5.53;4.90;;;;;;;;;;5053760;28;20324;-84
2022/05/11 01:11:33;;;;;;;5.70;5.10;;;;;;;;;;5054201;28;20187;-83
2022/05/11 01:14:00;;;;;;;5.80;5.03;;;;;;;;;;5052751;28;20233;-84
2022/05/11 01:16:28;;;;;;;5.87;5.37;;;;;;;;;;5053725;28;20202;-84
2022/05/11 01:18:56;;;;;;;6.10;5.37;;;;;;;;;;5053390;28;20244;-84
2022/05/11 01:21:24;;;;;;;6.40;5.33;;;;;;;;;;5061447;28;20216;-84
2022/05/11 01:23:56;;;;;;;5.50;5.00;;;;;;;;;;5066372;28;21040;-84
2022/05/11 01:26:24;;;;;;;6.70;5.17;;;;;;;;;;5054525;28;20217;-83
2022/05/11 01:28:54;;;;;;;5.67;5.07;;;;;;;;;;5055985;28;20240;-84
2022/05/11 01:31:21;;;;;;;5.53;4.93;;;;;;;;;;5054768;28;20202;-84
2022/05/11 01:33:49;;;;;;;8.00;6.00;;;;;;;;;;5054043;28;20234;-84
2022/05/11 01:36:20;;;;;;;6.17;5.57;;;;;;;;;;5056041;28;20209;-85
2022/05/11 01:38:49;;;;;;;5.77;5.37;;;;;;;;;;5055127;28;20237;-84
2022/05/11 01:41:18;;;;;;;6.03;5.27;;;;;;;;;;5054545;28;20210;-84
2022/05/11 01:43:46;;;;;;;6.10;4.97;;;;;;;;;;5054121;28;20234;-84
2022/05/11 01:46:14;;;;;;;5.30;4.80;;;;;;;;;;5054871;28;20237;-84
2022/05/11 01:48:41;;;;;;;5.67;5.17;;;;;;;;;;5055419;28;20623;-84
2022/05/11 01:51:09;;;;;;;7.70;5.20;;;;;;;;;;5054968;28;20213;-84
2022/05/11 01:53:36;;;;;;;6.30;5.70;;;;;;;;;;5053913;28;20255;-84
2022/05/11 01:56:03;;;;;;;7.27;5.10;;;;;;;;;;5055338;28;20610;-84
2022/05/11 01:58:30;;;;;;;5.60;5.13;;;;;;;;;;5055822;28;20289;-84
2022/05/11 02:00:59;;;;;;;5.57;5.07;;;;;;;;;;5057084;28;20217;-84
2022/05/11 02:03:27;;;;;;;6.77;6.13;;;;;;;;;;5055704;28;20918;-84
2022/05/11 02:08:38;;;;;;;5.80;5.20;;;;;;;;;;5021271;28;20226;-84
2022/05/11 02:11:05;;;;;;;6.00;5.40;;;;;;;;;;5056609;28;20210;-83
2022/05/11 02:13:33;;;;;;;6.00;5.50;;;;;;;;;;5056072;28;20234;-82
2022/05/11 02:16:01;;;;;;;6.27;5.77;;;;;;;;;;5056464;28;20752;-83
2022/05/11 02:18:29;;;;;;;5.97;5.37;;;;;;;;;;5059321;28;20205;-84
2022/05/11 02:20:56;;;;;;;5.83;5.23;;;;;;;;;;5055401;28;20202;-85
2022/05/11 02:23:24;;;;;;;6.13;5.53;;;;;;;;;;5055516;28;20741;-84
2022/05/11 02:25:51;;;;;;;6.27;5.63;;;;;;;;;;5055333;28;20229;-84
2022/05/11 02:28:21;;;;;;;5.40;5.00;;;;;;;;;;5057055;28;20216;-84
2022/05/11 02:30:49;;;;;;;5.67;5.13;;;;;;;;;;5056987;28;20263;-84
2022/05/11 02:33:17;;;;;;;6.90;4.70;;;;;;;;;;5057305;28;20233;-85
2022/05/11 02:35:45;;;;;;;5.33;4.83;;;;;;;;;;5057897;28;20222;-84
2022/05/11 02:38:13;;;;;;;5.50;5.00;;;;;;;;;;5056872;28;20241;-84
2022/05/11 02:40:41;;;;;;;6.17;4.50;;;;;;;;;;5057147;28;20206;-84
2022/05/11 02:43:10;;;;;;;6.00;5.33;;;;;;;;;;5056868;28;20236;-85
2022/05/11 02:45:39;;;;;;;5.87;5.27;;;;;;;;;;5056950;28;20248;-84
2022/05/11 02:48:07;;;;;;;6.00;5.40;;;;;;;;;;5056779;28;20256;-84
2022/05/11 02:50:37;;;;;;;5.60;5.10;;;;;;;;;;5056261;28;20217;-84
2022/05/11 02:53:07;;;;;;;4.87;4.47;;;;;;;;;;5056506;28;20710;-87
2022/05/11 02:55:35;;;;;;;7.27;5.37;;;;;;;;;;5056093;28;20309;-84
2022/05/11 02:58:02;;;;;;;6.03;5.47;;;;;;;;;;5056934;28;20202;-84
2022/05/11 03:00:29;;;;;;;5.97;5.47;;;;;;;;;;5055755;28;20287;-84
2022/05/11 03:02:56;;;;;;;6.17;5.57;;;;;;;;;;5055826;28;20737;-84
2022/05/11 03:05:23;;;;;;;6.23;5.63;;;;;;;;;;5055276;28;20237;-84
2022/05/11 03:07:52;;;;;;;5.97;5.50;;;;;;;;;;5055875;28;20230;-84
2022/05/11 03:10:19;;;;;;;5.50;5.00;;;;;;;;;;5055032;28;20261;-84
2022/05/11 03:12:46;;;;;;;13.67;6.97;;;;;;;;;;5055713;28;20206;-84
2022/05/11 03:15:14;;;;;;;6.50;5.20;;;;;;;;;;5054700;28;20237;-84
2022/05/11 03:17:41;;;;;;;5.63;5.13;;;;;;;;;;5055803;28;20608;-84
2022/05/11 03:20:10;;;;;;;5.47;5.03;;;;;;;;;;5054918;28;20233;-84
2022/05/11 03:22:37;;;;;;;6.03;5.40;;;;;;;;;;5055183;28;20221;-84
2022/05/11 03:25:06;;;;;;;5.20;4.40;;;;;;;;;;5054853;28;20241;-84
2022/05/11 03:27:33;;;;;;;6.50;5.17;;;;;;;;;;5055389;28;20233;-84
2022/05/11 03:30:00;;;;;;;5.17;4.67;;;;;;;;;;5054991;28;20240;-84
2022/05/11 03:35:12;;;;;;;5.80;5.30;;;;;;;;;;5063811;28;20360;-84
2022/05/11 03:37:40;;;;;;;5.33;4.80;;;;;;;;;;5075574;28;20743;-84
2022/05/11 03:40:09;;;;;;;6.00;4.97;;;;;;;;;;5067716;28;20233;-83
2022/05/11 03:42:37;;;;;;;5.60;5.10;;;;;;;;;;5080403;28;20238;-83
2022/05/11 03:45:09;;;;;;;6.17;5.60;;;;;;;;;;5076258;28;20259;-83
2022/05/11 03:47:36;;;;;;;5.47;4.97;;;;;;;;;;5087503;28;20259;-84
2022/05/11 03:50:04;;;;;;;6.13;5.10;;;;;;;;;;5077796;28;20233;-84
2022/05/11 03:52:31;;;;;;;5.87;5.37;;;;;;;;;;5083062;28;20216;-86
2022/05/11 03:54:58;;;;;;;5.63;5.07;;;;;;;;;;5077185;28;20243;-84
2022/05/11 03:57:27;;;;;;;5.50;5.10;;;;;;;;;;5060236;28;20198;-84
2022/05/11 03:59:54;;;;;;;7.23;5.30;;;;;;;;;;5054908;28;20252;-83
2022/05/11 04:02:21;;;;;;;8.97;5.07;;;;;;;;;;5064469;28;20201;-81
2022/05/11 04:04:48;;;;;;;5.60;5.10;;;;;;;;;;5075441;28;20589;-79
2022/05/11 04:07:15;;;;;;;7.03;5.37;;;;;;;;;;5056701;28;20233;-81
2022/05/11 04:09:42;;;;;;;8.93;5.70;;;;;;;;;;5058172;28;20234;-81
2022/05/11 04:12:10;;;;;;;7.40;6.70;;;;;;;;;;5066145;28;20213;-80
2022/05/11 04:14:38;;;;;;;6.83;5.80;;;;;;;;;;5076964;28;20233;-85
2022/05/11 04:17:05;;;;;;;5.97;5.37;;;;;;;;;;5065588;28;20198;-81
2022/05/11 04:19:32;;;;;;;6.37;5.67;;;;;;;;;;5069533;28;20261;-81
2022/05/11 04:21:59;;;;;;;8.53;5.80;;;;;;;;;;5069333;28;20216;-81
2022/05/11 04:24:26;;;;;;;5.67;5.23;;;;;;;;;;5063800;28;20242;-82
2022/05/11 04:26:54;;;;;;;6.87;5.30;;;;;;;;;;5064251;28;20296;-83
2022/05/11 04:29:21;;;;;;;7.20;5.23;;;;;;;;;;5075502;28;20233;-82
2022/05/11 04:31:55;;;;;;;6.70;6.00;;;;;;;;;;5077729;28;20205;-83
2022/05/11 04:34:22;;;;;;;6.67;5.70;;;;;;;;;;5075681;28;20256;-82
2022/05/11 04:36:49;;;;;;;7.87;5.57;;;;;;;;;;5077407;28;20206;-83
2022/05/11 04:39:16;;;;;;;5.47;4.97;;;;;;;;;;5078982;28;20229;-80
2022/05/11 04:41:44;;;;;;;8.37;5.70;;;;;;;;;;5076992;28;20206;-80
2022/05/11 04:44:11;;;;;;;6.10;5.30;;;;;;;;;;5075988;28;20240;-81
2022/05/11 04:46:39;;;;;;;5.83;5.37;;;;;;;;;;5078600;28;20225;-80
2022/05/11 04:49:20;;;;;;;7.83;6.30;;;;;;;;;;5059611;28;20237;-80
2022/05/11 04:51:48;;;;;;;6.53;5.83;;;;;;;;;;5059564;28;20216;-80
2022/05/11 04:54:15;;;;;;;7.57;5.70;;;;;;;;;;5059215;28;20234;-80
2022/05/11 04:56:42;;;;;;;8.53;5.53;;;;;;;;;;5059530;28;20684;-80
2022/05/11 04:59:12;;;;;;;7.40;6.20;;;;;;;;;;5058778;28;20242;-80
2022/05/11 05:01:39;;;;;;;10.53;5.90;;;;;;;;;;5058816;28;20232;-81
2022/05/11 05:04:08;;;;;;;7.93;6.50;;;;;;;;;;5058596;28;20238;-80
2022/05/11 05:06:36;;;;;;;9.33;6.13;;;;;;;;;;5058723;28;20241;-81
2022/05/11 05:09:04;;;;;;;6.40;5.80;;;;;;;;;;5059227;28;20230;-81
2022/05/11 05:11:31;;;;;;;6.80;6.10;;;;;;;;;;5059478;28;20666;-81
2022/05/11 05:13:58;;;;;;;9.90;6.13;;;;;;;;;;5058899;28;20252;-80
2022/05/11 05:16:25;;;;;;;9.70;6.40;;;;;;;;;;5059631;28;20210;-81
2022/05/11 05:18:53;;;;;;;7.77;6.63;;;;;;;;;;5059590;28;20226;-81
2022/05/11 05:21:21;;;;;;;8.17;6.20;;;;;;;;;;5060663;28;20201;-81
2022/05/11 05:23:49;;;;;;;6.50;5.70;;;;;;;;;;5058395;28;20234;-81
2022/05/11 05:26:16;;;;;;;6.57;5.87;;;;;;;;;;5060181;28;20216;-81
2022/05/11 05:31:29;;;;;;;6.50;5.47;;;;;;;;;;5059700;28;20368;-80
2022/05/11 05:33:59;;;;;;;7.10;5.90;;;;;;;;;;5058607;28;20698;-81
2022/05/11 05:36:28;;;;;;;8.20;5.80;;;;;;;;;;5059363;28;20210;-81
2022/05/11 05:38:56;;;;;;;6.20;5.60;;;;;;;;;;5058376;28;20307;-80
2022/05/11 05:41:23;;;;;;;5.97;4.80;;;;;;;;;;5057976;28;20279;-82
2022/05/11 05:43:50;;;;;;;5.83;5.27;;;;;;;;;;5056609;28;20580;-81
2022/05/11 05:46:18;;;;;;;6.00;5.33;;;;;;;;;;5055658;28;20205;-82
2022/05/11 05:48:45;;;;;;;5.10;4.60;;;;;;;;;;5054972;28;20279;-82
2022/05/11 05:51:14;;;;;;;6.80;5.57;;;;;;;;;;5069170;28;20201;-82
2022/05/11 05:53:44;;;;;;;5.20;4.70;;;;;;;;;;5062691;28;20233;-82
2022/05/11 05:56:11;;;;;;;5.20;4.70;;;;;;;;;;5054364;28;20229;-82
2022/05/11 05:58:39;;;;;;;5.50;5.00;;;;;;;;;;5053824;28;20237;-82
2022/05/11 06:01:07;;;;;;;5.70;4.57;;;;;;;;;;5053753;28;20198;-82
2022/05/11 06:03:35;;;;;;;6.90;4.30;;;;;;;;;;5053081;28;20237;-81
2022/05/11 06:06:02;;;;;;;5.03;4.63;;;;;;;;;;5053318;28;20210;-82
2022/05/11 06:08:29;;;;;;;4.10;3.80;;;;;;;;;;5052484;28;20650;-82
2022/05/11 06:10:58;;;;;;;4.67;4.17;;;;;;;;;;5053245;28;20693;-83
2022/05/11 06:13:26;;;;;;;4.27;3.87;;;;;;;;;;5052474;28;20222;-82
2022/05/11 06:15:53;;;;;;;7.73;3.90;;;;;;;;;;5053151;28;20214;-82
2022/05/11 06:18:21;;;;;;;5.70;4.07;;;;;;;;;;5053023;28;20233;-82
2022/05/11 06:20:51;;;;;;;4.77;3.80;;;;;;;;;;5052660;28;20220;-84
2022/05/11 06:23:18;;;;;;;4.05;3.28;;;;;;;;;;5053875;28;20306;-83
2022/05/11 06:25:45;;;;;;;3.42;3.13;;;;;;;;;;5053281;28;20564;-84
2022/05/11 06:28:14;;;;;;;4.07;3.17;;;;;;;;;;5051554;28;20260;-83
2022/05/11 06:30:41;;;;;;;3.40;3.10;;;;;;;;;;5051987;28;20205;-83
2022/05/11 06:33:08;;;;;;;3.60;3.30;;;;;;;;;;5052124;28;20218;-83
2022/05/11 06:35:35;;;;;;;3.50;3.30;;;;;;;;;;5052789;28;20214;-83
2022/05/11 06:38:03;;;;;;;3.40;3.10;;;;;;;;;;5051824;28;20577;-82
2022/05/11 06:40:30;;;;;;;3.75;3.25;;;;;;;;;;5052263;28;20241;-82
2022/05/11 06:42:57;;;;;;;3.70;3.10;;;;;;;;;;5052181;28;21020;-82
2022/05/11 06:45:26;;;;;;;3.58;3.05;;;;;;;;;;5054500;28;20249;-82
2022/05/11 06:47:54;;;;;;;4.22;3.22;;;;;;;;;;5061799;28;20221;-82
2022/05/11 06:50:21;;;;;;;3.40;3.10;;;;;;;;;;5072014;28;20233;-82
2022/05/11 06:52:48;;;;;;;3.47;3.17;;;;;;;;;;5072125;28;20685;-82
2022/05/11 07:00:46;;;;;;;5.55;2.75;;;;;;;;;;5073085;28;20227;-83
2022/05/11 07:03:14;;;;;;;3.90;3.10;;;;;;;;;;5071376;28;20900;-80
2022/05/11 07:05:41;;;;;;;3.08;2.70;;;;;;;;;;5072422;28;20583;-83
2022/05/11 07:08:09;;;;;;;4.50;3.25;;;;;;;;;;5070689;28;20594;-83
2022/05/11 07:10:37;;;;;;;3.83;2.90;;;;;;;;;;5071550;28;20228;-84
2022/05/11 07:13:04;;;;;;;4.00;3.03;;;;;;;;;;5078753;28;20232;-81
2022/05/11 07:15:31;;;;;;;3.20;2.90;;;;;;;;;;5076996;28;20229;-81
2022/05/11 07:18:01;;;;;;;4.15;2.95;;;;;;;;;;5077642;28;20197;-82
2022/05/11 07:20:33;;;;;;;3.53;3.17;;;;;;;;;;5075433;28;20319;-82
2022/05/11 07:23:02;;;;;;;5.22;3.05;;;;;;;;;;5079055;28;20276;-81
2022/05/11 07:25:29;;;;;;;4.60;2.83;;;;;;;;;;5077459;28;20236;-81
2022/05/11 07:27:58;;;;;;;2.90;2.70;;;;;;;;;;5077138;28;20201;-82
2022/05/11 07:30:27;;;;;;;4.68;3.30;;;;;;;;;;5077949;28;20291;-82
2022/05/11 07:32:54;;;;;;;2.85;2.65;;;;;;;;;;5075857;28;20229;-82
2022/05/11 07:35:22;;;;;;;3.13;2.88;;;;;;;;;;5076025;28;20237;-82
2022/05/11 07:37:50;;;;;;;2.80;2.60;;;;;;;;;;5077084;28;20237;-82
2022/05/11 07:40:18;;;;;;;4.68;2.67;;;;;;;;;;5078065;28;20939;-81
2022/05/11 07:42:45;;;;;;;4.28;2.95;;;;;;;;;;5075502;28;20209;-82
2022/05/11 07:45:12;;;;;;;2.95;2.75;;;;;;;;;;5055077;28;20233;-83
2022/05/11 07:47:39;;;;;;;2.58;2.33;;;;;;;;;;5059437;28;20241;-82
2022/05/11 07:50:07;;;;;;;4.93;2.90;;;;;;;;;;5065592;28;20226;-84
2022/05/11 07:52:36;;;;;;;4.85;2.50;;;;;;;;;;5071089;28;20220;-83
2022/05/11 07:55:03;;;;;;;3.75;3.08;;;;;;;;;;5059885;28;20241;-84
2022/05/11 08:00:15;;;;;;;2.90;2.63;;;;;;;;;;5075209;28;20654;-82
2022/05/11 08:02:43;;;;;;;4.50;2.83;;;;;;;;;;5076793;28;20216;-84
2022/05/11 08:05:11;;;;;;;5.50;2.80;;;;;;;;;;5074552;28;20237;-84
2022/05/11 08:07:40;;;;;;;3.08;2.88;;;;;;;;;;5075794;28;20755;-84
2022/05/11 08:10:09;;;;;;;2.90;2.70;;;;;;;;;;5055710;28;20256;-83
2022/05/11 08:12:36;;;;;;;3.13;2.42;;;;;;;;;;5059522;28;20627;-85
2022/05/11 08:15:03;;;;;;;2.80;2.60;;;;;;;;;;5056002;28;20233;-84
2022/05/11 08:17:32;;;;;;;2.90;2.53;;;;;;;;;;5055763;28;20208;-84
2022/05/11 08:20:00;;;;;;;2.70;2.50;;;;;;;;;;5059920;28;20237;-83
2022/05/11 08:22:27;;;;;;;2.50;2.35;;;;;;;;;;5069698;28;20195;-85
2022/05/11 08:24:56;;;;;;;3.00;2.80;;;;;;;;;;5054641;28;20249;-84
2022/05/11 08:27:25;;;;;;;3.55;2.63;;;;;;;;;;5056230;28;20202;-85
2022/05/11 08:35:22;;;;;;;2.88;2.58;;;;;;;;;;5054185;28;20232;-84
2022/05/11 08:37:49;;;;;;;3.42;2.80;;;;;;;;;;5053647;28;20202;-85
2022/05/11 08:40:19;;;;;;;3.95;2.60;;;;;;;;;;5055574;28;20259;-84
2022/05/11 08:42:46;;;;;;;3.63;2.38;;;;;;;;;;5055301;28;20202;-83
2022/05/11 08:45:13;;;;;;;5.40;2.95;;;;;;;;;;5055419;28;20245;-88
2022/05/11 08:47:44;;;;;;;3.97;3.05;;;;;;;;;;5055809;28;20698;-84
2022/05/11 08:50:13;;;;;;;3.08;2.60;;;;;;;;;;5071213;28;20237;-85
2022/05/11 08:52:43;;;;;;;2.70;2.50;;;;;;;;;;5076186;28;20198;-85
2022/05/11 08:55:12;;;;;;;2.67;2.47;;;;;;;;;;5055121;28;20248;-85
2022/05/11 08:57:41;;;;;;;2.70;2.50;;;;;;;;;;5055243;28;20205;-83
2022/05/11 09:00:10;;;;;;;2.72;2.42;;;;;;;;;;5053940;28;20234;-85
2022/05/11 09:02:45;;;;;;;2.72;2.53;;;;;;;;;;5054820;28;20229;-84
2022/05/11 09:05:13;;;;;;;3.33;2.60;;;;;;;;;;5069298;28;20233;-84
2022/05/11 09:07:41;;;;;;;3.05;2.75;;;;;;;;;;5075372;28;20225;-85
2022/05/11 09:10:09;;;;;;;3.65;2.58;;;;;;;;;;5074079;28;20241;-85
2022/05/11 09:12:37;;;;;;;2.92;2.63;;;;;;;;;;5072525;28;20209;-85
2022/05/11 09:15:06;;;;;;;3.33;2.90;;;;;;;;;;5067373;28;20230;-85
2022/05/11 09:17:34;;;;;;;4.10;2.88;;;;;;;;;;5057249;28;20209;-84
2022/05/11 09:20:04;;;;;;;4.47;2.53;;;;;;;;;;5058680;28;20244;-84
2022/05/11 09:22:33;;;;;;;5.20;2.60;;;;;;;;;;5079347;28;20205;-83
2022/05/11 09:25:00;;;;;;;2.72;2.53;;;;;;;;;;5074066;28;20256;-84
2022/05/11 09:27:29;;;;;;;2.67;2.47;;;;;;;;;;5075402;28;20212;-83
2022/05/11 09:29:58;;;;;;;2.38;2.22;;;;;;;;;;5076979;28;20251;-83
2022/05/11 09:32:29;;;;;;;2.97;2.78;;;;;;;;;;5078601;28;20244;-83
2022/05/11 09:34:58;;;;;;;3.38;2.97;;;;;;;;;;5075648;28;20240;-84
2022/05/11 09:37:27;;;;;;;8.13;3.45;;;;;;;;;;5077183;28;20205;-84
2022/05/11 09:39:55;;;;;;;3.03;2.83;;;;;;;;;;5069793;28;20233;-84
2022/05/11 09:42:29;;;;;;;3.17;2.95;;;;;;;;;;5090948;28;20209;-85
2022/05/11 09:44:56;;;;;;;5.07;3.42;;;;;;;;;;5070704;28;20242;-85
2022/05/11 09:47:25;;;;;;;3.03;2.75;;;;;;;;;;5085336;28;20205;-86
2022/05/11 09:49:53;;;;;;;3.40;3.00;;;;;;;;;;5069043;28;20245;-84
2022/05/11 09:52:28;;;;;;;2.85;2.65;;;;;;;;;;5069612;28;20193;-84
2022/05/11 09:54:55;;;;;;;5.13;2.70;;;;;;;;;;5055533;28;20245;-85
2022/05/11 09:57:27;;;;;;;4.15;2.97;;;;;;;;;;5062910;28;20190;-88
2022/05/11 09:59:56;;;;;;;4.85;3.50;;;;;;;;;;5054473;28;20316;-85
2022/05/11 10:02:27;;;;;;;2.45;2.28;;;;;;;;;;5056153;28;20297;-82
2022/05/11 10:04:57;;;;;;;3.00;2.50;;;;;;;;;;5054712;28;20241;-85
2022/05/11 10:07:26;;;;;;;2.80;2.60;;;;;;;;;;5056011;28;20210;-81
2022/05/11 10:09:56;;;;;;;4.75;2.88;;;;;;;;;;5052584;28;20245;-83
2022/05/11 10:12:28;;;;;;;3.20;2.63;;;;;;;;;;5055378;28;20366;-84
2022/05/11 10:23:23;;;;;;;4.55;2.97;;;;;;;;;;5054433;28;20311;-83
2022/05/11 10:25:51;;;;;;;5.28;2.88;;;;;;;;;;5056590;28;20214;-83
2022/05/11 10:28:24;;;;;;;4.60;2.80;;;;;;;;;;5055532;28;20229;-82
2022/05/11 10:30:53;;;;;;;6.40;2.78;;;;;;;;;;5055814;28;20570;-83
2022/05/11 10:33:37;;;;;;;2.80;2.60;;;;;;;;;;5055742;28;20234;-83
2022/05/11 10:36:10;;;;;;;6.47;2.53;;;;;;;;;;5064071;28;20201;-83
2022/05/11 10:38:42;;;;;;;2.42;2.22;;;;;;;;;;5076507;28;20233;-82
2022/05/11 10:41:13;;;;;;;4.25;2.50;;;;;;;;;;5075305;28;20614;-83
2022/05/11 10:43:52;;;;;;;3.70;2.72;;;;;;;;;;5064850;28;20236;-84
2022/05/11 10:46:24;;;;;;;3.13;2.80;;;;;;;;;;5056080;28;20190;-83
2022/05/11 10:49:03;;;;;;;2.88;2.67;;;;;;;;;;5076867;28;20919;-82
2022/05/11 10:51:35;;;;;;;3.95;2.55;;;;;;;;;;5078245;28;20194;-81
2022/05/11 10:54:07;;;;;;;3.22;2.92;;;;;;;;;;5078446;28;20236;-82
2022/05/11 10:56:39;;;;;;;3.88;3.25;;;;;;;;;;5079429;28;20661;-83
2022/05/11 10:59:14;;;;;;;2.60;2.40;;;;;;;;;;5077383;28;20261;-82
2022/05/11 11:01:47;;;;;;;3.00;2.80;;;;;;;;;;5078020;28;20205;-82
2022/05/11 11:04:21;;;;;;;4.85;3.53;;;;;;;;;;5077757;28;20270;-82
2022/05/11 11:07:12;;;;;;;3.25;2.67;;;;;;;;;;5076772;28;20216;-82
2022/05/11 11:09:55;;;;;;;3.00;2.80;;;;;;;;;;5076294;28;20260;-83
2022/05/11 11:12:30;;;;;;;2.88;2.53;;;;;;;;;;5077936;28;20190;-83
2022/05/11 11:14:58;;;;;;;5.03;3.25;;;;;;;;;;5076972;28;20328;-84
2022/05/11 11:17:26;;;;;;;3.15;2.75;;;;;;;;;;5076463;28;20205;-82
2022/05/11 11:19:55;;;;;;;3.35;2.63;;;;;;;;;;5075130;28;20902;-83
2022/05/11 11:22:23;;;;;;;4.38;2.90;;;;;;;;;;5078248;28;20213;-85
2022/05/11 11:25:09;;;;;;;3.63;2.65;;;;;;;;;;5077283;28;20236;-82
2022/05/11 11:27:51;;;;;;;2.72;2.60;;;;;;;;;;5077694;28;20205;-85
2022/05/11 11:30:22;;;;;;;2.90;2.60;;;;;;;;;;5073223;28;20240;-83
2022/05/11 11:33:04;;;;;;;3.10;2.83;;;;;;;;;;5075832;28;20243;-83
2022/05/11 11:35:36;;;;;;;3.53;2.50;;;;;;;;;;5064985;28;20710;-83
2022/05/11 11:38:05;;;;;;;2.90;2.70;;;;;;;;;;5067876;28;20228;-82
2022/05/11 11:40:34;;;;;;;3.28;3.00;;;;;;;;;;5075690;28;20233;-83
2022/05/11 11:43:38;;;;;;;2.72;2.55;;;;;;;;;;5075842;28;20243;-83
2022/05/11 11:46:00;;;;;;;2.78;2.50;;;;;;;;;;5074739;28;20221;-83
2022/05/11 11:48:29;;;;;;;2.50;2.30;;;;;;;;;;5075053;28;20864;-84
2022/05/11 11:50:58;;;;;;;2.50;2.30;;;;;;;;;;5074905;28;20216;-84
2022/05/11 11:53:31;;;;;;;2.78;2.47;;;;;;;;;;5074235;28;20275;-84
2022/05/11 11:56:32;;;;;;;2.60;2.40;;;;;;;;;;5077221;28;20217;-82
2022/05/11 11:59:03;;;;;;;4.78;2.40;;;;;;;;;;5075333;28;20233;-84
2022/05/11 12:01:31;;;;;;;4.25;2.40;;;;;;;;;;5075504;28;20205;-84
2022/05/11 12:04:00;;;;;;;2.70;2.50;;;;;;;;;;5075700;28;20255;-86
2022/05/11 12:15:02;;;;;;;3.42;2.42;;;;;;;;;;5054269;28;20256;-84
2022/05/11 12:17:31;;;;;;;2.55;2.35;;;;;;;;;;5055223;28;20206;-83
2022/05/11 12:20:01;;;;;;;2.70;2.50;;;;;;;;;;5053458;28;20235;-84
2022/05/11 12:22:29;;;;;;;3.75;2.80;;;;;;;;;;5055851;28;20206;-84
2022/05/11 12:25:02;;;;;;;2.90;2.60;;;;;;;;;;5054742;28;20238;-83
2022/05/11 12:27:30;;;;;;;2.60;2.40;;;;;;;;;;5056377;28;20253;-84
2022/05/11 12:29:59;;;;;;;2.60;2.30;;;;;;;;;;5055769;28;20234;-83
2022/05/11 12:32:27;;;;;;;2.50;2.30;;;;;;;;;;5067821;28;20665;-84
2022/05/11 12:34:55;;;;;;;4.55;2.33;;;;;;;;;;5067252;28;20238;-83
2022/05/11 12:37:23;;;;;;;3.08;2.63;;;;;;;;;;5070471;28;20697;-84
2022/05/11 12:39:55;;;;;;;3.40;2.20;;;;;;;;;;5069296;28;20229;-83
2022/05/11 12:42:29;;;;;;;4.03;2.70;;;;;;;;;;5070036;28;20212;-84
2022/05/11 12:44:56;;;;;;;4.53;2.35;;;;;;;;;;5060421;28;20308;-84
2022/05/11 12:47:23;;;;;;;8.77;2.80;;;;;;;;;;5064392;28;20225;-84
2022/05/11 12:49:51;;;;;;;2.58;2.38;;;;;;;;;;5062795;28;20232;-85
2022/05/11 12:52:20;;;;;;;3.35;2.33;;;;;;;;;;5064846;28;20572;-84
2022/05/11 12:54:56;;;;;;;2.75;2.55;;;;;;;;;;5063864;28;20229;-83
2022/05/11 12:57:23;;;;;;;3.33;2.10;;;;;;;;;;5067270;28;20209;-84
2022/05/11 12:59:53;;;;;;;2.97;2.60;;;;;;;;;;5065913;28;20596;-84
2022/05/11 13:02:23;;;;;;;3.45;2.42;;;;;;;;;;5066888;28;20213;-84
2022/05/11 13:04:52;;;;;;;2.95;2.50;;;;;;;;;;5064781;28;20240;-84
2022/05/11 13:07:21;;;;;;;2.60;2.40;;;;;;;;;;5059419;28;20206;-85
2022/05/11 13:09:49;;;;;;;2.60;2.38;;;;;;;;;;5062038;28;20218;-83
2022/05/11 13:12:18;;;;;;;3.70;2.28;;;;;;;;;;5063803;28;20197;-85
2022/05/11 13:14:46;;;;;;;2.78;2.50;;;;;;;;;;5062385;28;20606;-83
2022/05/11 13:17:22;;;;;;;2.53;2.30;;;;;;;;;;5062430;28;20209;-84
2022/05/11 13:19:53;;;;;;;3.03;2.47;;;;;;;;;;5074756;28;20232;-85
2022/05/11 13:22:24;;;;;;;4.13;1.92;;;;;;;;;;5071085;28;20208;-84
2022/05/11 13:24:52;;;;;;;2.10;1.88;;;;;;;;;;5058520;28;20233;-85
2022/05/11 13:27:27;;;;;;;2.17;1.98;;;;;;;;;;5063149;28;20206;-86
2022/05/11 13:30:02;;;;;;;10.90;2.08;;;;;;;;;;5061755;28;20229;-85
2022/05/11 13:32:36;;;;;;;3.17;1.70;;;;;;;;;;5066524;28;20553;-85
2022/05/11 13:35:31;;;;;;;1.85;1.75;;;;;;;;;;5061670;28;20228;-84
2022/05/11 13:38:13;;;;;;;3.55;2.10;;;;;;;;;;5033175;28;20884;-85
2022/05/11 13:40:42;;;;;;;1.80;1.70;;;;;;;;;;5061491;28;20221;-84
2022/05/11 13:43:18;;;;;;;5.30;1.92;;;;;;;;;;5067448;28;20229;-85
2022/05/11 13:45:55;;;;;;;3.53;1.77;;;;;;;;;;5067970;28;20628;-81
2022/05/11 13:48:29;;;;;;;1.75;1.65;;;;;;;;;;5073854;28;20240;-86
2022/05/11 13:51:07;;;;;;;2.63;2.03;;;;;;;;;;5068979;28;20237;-83
2022/05/11 13:53:35;;;;;;;2.55;1.95;;;;;;;;;;5067440;28;20240;-84
2022/05/11 13:56:06;;;;;;;2.20;2.00;;;;;;;;;;5065066;28;20237;-82
2022/05/11 13:58:35;;;;;;;3.45;2.08;;;;;;;;;;5065299;28;20717;-83
2022/05/11 14:01:03;;;;;;;1.95;1.80;;;;;;;;;;5060454;28;20289;-83
2022/05/11 14:03:34;;;;;;;2.20;2.00;;;;;;;;;;5064346;28;20694;-83
2022/05/11 14:06:04;;;;;;;2.65;2.25;;;;;;;;;;5060487;28;20675;-83
2022/05/11 14:08:32;;;;;;;3.75;2.33;;;;;;;;;;5060062;28;20240;-82
2022/05/11 14:10:59;;;;;;;4.25;1.90;;;;;;;;;;5060877;28;20229;-83
2022/05/11 14:13:27;;;;;;;3.42;1.75;;;;;;;;;;5064324;28;20218;-83
2022/05/11 14:15:54;;;;;;;2.05;1.80;;;;;;;;;;5060147;28;20269;-84
2022/05/11 14:18:21;;;;;;;2.38;1.90;;;;;;;;;;5064552;28;20205;-86
2022/05/11 14:20:50;;;;;;;2.78;2.00;;;;;;;;;;5065568;28;20198;-84
2022/05/11 14:23:17;;;;;;;3.90;1.85;;;;;;;;;;5069084;28;20233;-83
2022/05/11 14:25:44;;;;;;;3.00;1.80;;;;;;;;;;5077295;28;20197;-83
2022/05/11 14:28:11;;;;;;;9.00;2.17;;;;;;;;;;5073431;28;20212;-83
2022/05/11 14:30:38;;;;;;;4.32;2.00;;;;;;;;;;5069638;28;20256;-84
2022/05/11 14:33:05;;;;;;;1.92;1.83;;;;;;;;;;5071991;28;20237;-84
2022/05/11 14:35:33;;;;;;;3.20;1.98;;;;;;;;;;5065450;28;20237;-84
2022/05/11 14:38:01;;;;;;;7.18;2.20;;;;;;;;;;5065705;28;20240;-84
2022/05/11 14:40:30;;;;;;;5.55;2.08;;;;;;;;;;5069845;28;20222;-84
2022/05/11 14:42:57;;;;;;;5.07;2.05;;;;;;;;;;5068145;28;20304;-83
2022/05/11 14:45:24;;;;;;;5.50;2.47;;;;;;;;;;5064191;28;20228;-84
2022/05/11 14:47:56;;;;;;;4.10;1.95;;;;;;;;;;5065866;28;20205;-85
2022/05/11 14:50:23;;;;;;;5.72;2.30;;;;;;;;;;5069580;28;20225;-85
2022/05/11 14:52:51;;;;;;;5.15;2.05;;;;;;;;;;5064566;28;20206;-85
2022/05/11 14:55:21;;;;;;;2.67;2.00;;;;;;;;;;5067357;28;20608;-84
2022/05/11 15:03:18;;;;;;;2.90;2.20;;;;;;;;;;5065188;28;20593;-85
2022/05/11 15:05:46;;;;;;;2.47;2.28;;;;;;;;;;5061808;28;20198;-84
2022/05/11 15:08:13;;;;;;;5.40;2.45;;;;;;;;;;5064003;28;20205;-84
2022/05/11 15:10:42;;;;;;;5.72;2.15;;;;;;;;;;5063599;28;20229;-85
2022/05/11 15:15:54;;;;;;;3.22;2.13;;;;;;;;;;5062553;28;20277;-83
2022/05/11 15:18:23;;;;;;;2.40;2.13;;;;;;;;;;5061628;28;20199;-87
2022/05/11 15:20:50;;;;;;;2.47;2.20;;;;;;;;;;5061729;28;20658;-87
2022/05/11 15:23:18;;;;;;;2.75;2.55;;;;;;;;;;5061681;28;20936;-87
2022/05/11 15:25:46;;;;;;;2.45;2.25;;;;;;;;;;5062507;28;20634;-86
2022/05/11 15:28:14;;;;;;;4.43;2.22;;;;;;;;;;5063191;28;20205;-87
2022/05/11 15:30:42;;;;;;;2.30;2.15;;;;;;;;;;5063238;28;20237;-85
2022/05/11 15:33:11;;;;;;;2.30;2.10;;;;;;;;;;5062757;28;20228;-87
2022/05/11 15:35:39;;;;;;;4.45;2.20;;;;;;;;;;5061425;28;20216;-86
2022/05/11 15:38:06;;;;;;;4.80;2.78;;;;;;;;;;5063594;28;20205;-86
2022/05/11 15:40:33;;;;;;;3.60;2.20;;;;;;;;;;5064602;28;20236;-87
2022/05/11 15:43:04;;;;;;;3.00;2.30;;;;;;;;;;5064587;28;20236;-86
2022/05/11 15:45:31;;;;;;;3.55;2.30;;;;;;;;;;5064725;28;20229;-84